Ashland, Nebraska
Current Conditions -  °F | °C
As of 5:55 AM on Sunday 25 Jan 2015 (Local Time) from KMLE Reporting Station
Overcast Overcast  
Wind Chill: 27°   Ceiling: 1300
Heat Index: 37°   Visibility: 10mi
Dew Point: 32°   Wind: 15mph
Humidity: 84%   Direction: 330°NNW
Pressure: 29.75"   Gusts: 25mph
Location:  41.04°N, 96.37°W
Report Text: KMLE 251155Z AUTO 33013G22KT 10SM OVC013 03/00 A2975 RMK AO2 70002 T00250001 10076 20022
Loading
Personal Weather Stations






























Interactive Weather Map New forecast layout! Learn more

10-Day Weather Forecast

Advertisements
Track Severe Weather on mobile